Time;durP1;ratioP1;P1;durP2;ratioP2;P2;SDS_P1;SDS_P2;PMS_P1;PMS_P2;Temp;Humidity;BMP_temperature;BMP_pressure;BME280_temperature;BME280_humidity;BME280_pressure;Samples;Min_cycle;Max_cycle;Signal;HPM_P1;HPM_P2
2022/09/07 00:02:09;;;;;;;;;7.25;7.25;;;;;26.43;42.92;100856.28;5037926;28;45461;-49
2022/09/07 00:04:35;;;;;;;;;9.50;7.00;;;;;26.43;42.53;100850.97;5038060;28;45417;-46
2022/09/07 00:07:00;;;;;;;;;8.00;8.00;;;;;26.42;42.63;100846.63;5037807;28;45392;-50
2022/09/07 00:09:25;;;;;;;;;9.75;7.00;;;;;26.43;43.05;100852.78;5037154;28;46613;-52
2022/09/07 00:11:51;;;;;;;;;6.50;6.00;;;;;26.43;42.70;100844.81;5043706;28;48815;-47
2022/09/07 00:14:16;;;;;;;;;9.00;7.25;;;;;26.42;42.81;100857.25;5040445;28;45327;-50
2022/09/07 00:16:41;;;;;;;;;8.75;7.50;;;;;26.43;43.13;100855.44;5037276;28;53217;-49
2022/09/07 00:19:06;;;;;;;;;9.00;7.75;;;;;26.41;43.05;100858.22;5037139;28;46050;-47
2022/09/07 00:21:32;;;;;;;;;7.00;7.00;;;;;26.42;42.51;100857.25;5039446;28;45281;-49
2022/09/07 00:23:57;;;;;;;;;8.25;6.25;;;;;26.42;42.72;100859.91;5047261;28;45166;-50
2022/09/07 00:26:25;;;;;;;;;9.25;7.00;;;;;26.43;42.99;100856.28;5046341;28;45789;-48
2022/09/07 00:28:51;;;;;;;;;8.25;6.50;;;;;26.43;42.64;100855.44;5047280;28;45389;-50
2022/09/07 00:31:19;;;;;;;;;10.00;8.50;;;;;26.42;42.75;100849.28;5038044;28;45368;-49
2022/09/07 00:33:46;;;;;;;;;6.00;6.00;;;;;26.42;42.82;100851.09;5038325;28;45500;-48
2022/09/07 00:36:12;;;;;;;;;7.50;7.50;;;;;26.42;42.97;100853.75;5037482;28;45328;-47
2022/09/07 00:38:37;;;;;;;;;7.50;6.25;;;;;26.42;43.00;100859.06;5042503;28;45992;-51
2022/09/07 00:41:04;;;;;;;;;8.00;5.75;;;;;26.40;42.82;100851.22;5040385;28;45244;-47
2022/09/07 00:43:37;;;;;;;;;8.50;6.75;;;;;26.41;42.76;100852.91;5037342;28;45245;-47
2022/09/07 00:46:04;;;;;;;;;5.00;5.00;;;;;26.41;43.10;100857.38;5036922;28;45331;-51
2022/09/07 00:48:56;;;;;;;;;6.75;4.00;;;;;26.41;43.00;100847.56;5036586;28;45231;-50
2022/09/07 00:51:45;;;;;;;;;6.25;6.25;;;;;26.40;43.26;100848.56;5037637;28;45428;-48
2022/09/07 00:54:16;;;;;;;;;4.50;4.50;;;;;26.41;43.12;100852.06;5037287;28;45205;-53
2022/09/07 00:56:45;;;;;;;;;6.00;5.75;;;;;26.39;43.13;100847.72;5040959;28;45575;-53
2022/09/07 00:59:14;;;;;;;;;8.25;5.25;;;;;26.39;43.48;100845.06;5043272;28;46520;-50
2022/09/07 01:01:40;;;;;;;;;7.25;6.25;;;;;26.39;43.38;100852.19;5042351;28;45474;-49
2022/09/07 01:04:07;;;;;;;;;8.00;6.25;;;;;26.39;43.17;100849.53;5047337;28;44741;-49
2022/09/07 01:06:35;;;;;;;;;7.00;5.25;;;;;26.39;42.76;100854.84;5050461;28;45395;-48
2022/09/07 01:09:09;;;;;;;;;4.00;4.00;;;;;26.39;43.08;100852.19;5042313;28;47467;-46
2022/09/07 01:11:35;;;;;;;;;6.50;5.00;;;;;26.38;43.17;100840.72;5035923;28;45244;-48
2022/09/07 01:14:03;;;;;;;;;5.50;4.25;;;;;26.39;43.21;100841.56;5036947;28;45482;-47
2022/09/07 01:16:48;;;;;;;;;6.25;4.50;;;;;26.39;43.18;100849.53;5039581;28;45480;-48
2022/09/07 01:19:25;;;;;;;;;5.00;5.00;;;;;26.39;43.11;100849.53;5037292;28;46056;-50
2022/09/07 01:22:21;;;;;;;;;6.25;4.75;;;;;26.39;43.21;100845.06;5038789;28;45312;-47
2022/09/07 01:25:09;;;;;;;;;5.50;5.50;;;;;26.39;43.19;100847.72;5040092;28;45414;-47
2022/09/07 01:27:50;;;;;;;;;7.00;4.00;;;;;26.39;43.12;100849.53;5039186;28;45200;-48
2022/09/07 01:30:21;;;;;;;;;4.25;4.25;;;;;26.40;43.39;100845.91;5050899;28;45501;-48
2022/09/07 01:33:06;;;;;;;;;5.25;5.00;;;;;26.39;43.25;100842.41;5056937;28;45867;-46
2022/09/07 01:35:42;;;;;;;;;5.00;5.00;;;;;26.39;43.09;100844.22;5046018;28;45582;-51
2022/09/07 01:38:16;;;;;;;;;5.25;5.25;;;;;26.40;43.29;100840.59;5041321;28;45342;-51
2022/09/07 01:40:49;;;;;;;;;7.50;7.00;;;;;26.40;43.41;100837.94;5040168;28;46366;-54
2022/09/07 01:43:36;;;;;;;;;7.75;4.00;;;;;26.38;43.22;100834.56;5046942;28;45229;-51
2022/09/07 01:46:06;;;;;;;;;4.50;4.50;;;;;26.39;43.01;100833.59;5047130;28;45195;-47
2022/09/07 01:48:34;;;;;;;;;5.00;5.00;;;;;26.39;43.20;100837.09;5042259;28;45359;-48
2022/09/07 01:51:03;;;;;;;;;6.75;4.75;;;;;26.41;42.95;100841.44;5039423;28;46653;-48
2022/09/07 01:53:49;;;;;;;;;3.50;3.50;;;;;26.39;43.09;100844.22;5039540;28;45268;-47
2022/09/07 01:56:23;;;;;;;;;4.00;4.00;;;;;26.39;43.28;100828.28;5037888;28;45390;-48
2022/09/07 01:58:54;;;;;;;;;3.25;3.25;;;;;26.38;42.96;100827.41;5040023;28;45612;-48
2022/09/07 02:01:26;;;;;;;;;4.25;4.25;;;;;26.38;43.56;100831.91;5041667;28;45482;-47
2022/09/07 02:04:09;;;;;;;;;6.25;3.50;;;;;26.38;43.12;100829.25;5041514;28;45311;-46
2022/09/07 02:06:58;;;;;;;;;6.25;4.00;;;;;26.38;42.99;100829.25;5042711;28;45432;-51
2022/09/07 02:09:32;;;;;;;;;4.50;4.00;;;;;26.38;43.56;100839.88;5048238;28;45228;-49
2022/09/07 02:12:02;;;;;;;;;5.25;4.00;;;;;26.38;43.26;100837.22;5039448;28;46392;-46
2022/09/07 02:14:32;;;;;;;;;7.00;5.00;;;;;26.38;43.09;100831.91;5038558;28;45394;-49
2022/09/07 02:17:05;;;;;;;;;5.50;5.00;;;;;26.38;43.18;100823.94;5039462;28;45426;-48
2022/09/07 02:19:37;;;;;;;;;5.00;4.00;;;;;26.38;43.26;100821.28;5040181;28;45402;-52
2022/09/07 02:22:10;;;;;;;;;3.25;3.25;;;;;26.38;43.25;100823.94;5039169;28;45479;-55
2022/09/07 02:24:41;;;;;;;;;4.75;4.00;;;;;26.37;43.02;100816.94;5048250;28;45433;-52
2022/09/07 02:27:12;;;;;;;;;4.50;3.75;;;;;26.37;43.27;100819.59;5049532;28;45394;-54
2022/09/07 02:29:37;;;;;;;;;3.00;3.00;;;;;26.37;43.07;100827.56;5049397;28;45956;-48
2022/09/07 02:32:03;;;;;;;;;3.75;2.75;;;;;26.36;43.52;100821.38;5043178;28;45439;-48
2022/09/07 02:34:30;;;;;;;;;4.75;4.00;;;;;26.35;42.83;100826.84;5045243;28;45337;-54
2022/09/07 02:36:59;;;;;;;;;4.50;3.00;;;;;26.36;42.98;100825.88;5050080;28;45362;-49
2022/09/07 02:39:27;;;;;;;;;5.00;2.50;;;;;26.35;43.05;100822.34;5041985;28;45231;-47
2022/09/07 02:41:52;;;;;;;;;5.00;3.25;;;;;26.36;42.71;100825.88;5037448;28;47054;-46
2022/09/07 02:44:25;;;;;;;;;4.50;2.75;;;;;26.35;43.36;100824.19;5038972;28;45348;-46
2022/09/07 02:47:25;;;;;;;;;4.00;4.00;;;;;26.35;43.21;100817.03;5038927;28;45330;-47
2022/09/07 02:50:16;;;;;;;;;4.00;1.00;;;;;26.35;42.88;100822.34;5039540;28;45288;-48
2022/09/07 02:53:13;;;;;;;;;3.75;2.75;;;;;26.35;43.20;100825.00;5040969;28;45673;-46
2022/09/07 02:56:08;;;;;;;;;5.50;3.00;;;;;26.34;42.95;100817.16;5056671;28;45720;-52
2022/09/07 02:58:46;;;;;;;;;3.00;3.00;;;;;26.34;43.57;100820.69;5051619;28;45507;-52
2022/09/07 03:01:40;;;;;;;;;4.00;2.25;;;;;26.35;43.16;100827.66;5043252;28;45343;-47
2022/09/07 03:04:37;;;;;;;;;3.50;3.50;;;;;26.34;42.99;100827.78;5040017;28;45421;-47
2022/09/07 03:07:13;;;;;;;;;3.00;3.00;;;;;26.34;43.35;100831.31;5038785;28;45589;-48
2022/09/07 03:09:44;;;;;;;;;3.75;2.75;;;;;26.34;43.28;100828.66;5037868;28;45210;-46
2022/09/07 03:12:10;;;;;;;;;3.00;2.00;;;;;26.33;43.41;100820.78;5039136;28;45500;-46
2022/09/07 03:14:39;;;;;;;;;2.50;2.00;;;;;26.33;43.55;100826.97;5038702;28;45509;-48
2022/09/07 03:17:04;;;;;;;;;2.00;2.00;;;;;26.33;42.93;100826.97;5038401;28;45347;-46
2022/09/07 03:19:29;;;;;;;;;4.75;3.00;;;;;26.33;43.27;100834.94;5037328;28;52418;-50
2022/09/07 03:21:54;;;;;;;;;2.75;2.00;;;;;26.33;43.31;100826.09;5039989;28;45531;-50
2022/09/07 03:24:20;;;;;;;;;2.00;2.00;;;;;26.33;43.23;100829.63;5040522;28;45407;-47
2022/09/07 03:26:47;;;;;;;;;2.25;2.00;;;;;26.32;42.73;100830.59;5041995;28;55801;-50
2022/09/07 03:29:13;;;;;;;;;3.00;2.00;;;;;26.33;43.22;100834.94;5041055;28;45430;-49
2022/09/07 03:31:38;;;;;;;;;4.00;2.50;;;;;26.33;43.34;100839.38;5055526;28;45339;-51
2022/09/07 03:34:04;;;;;;;;;3.75;2.00;;;;;26.32;43.20;100841.22;5053413;28;45386;-47
2022/09/07 03:36:29;;;;;;;;;1.25;1.25;;;;;26.32;43.06;100840.34;5040104;28;45434;-46
2022/09/07 03:38:55;;;;;;;;;3.25;2.00;;;;;26.32;43.44;100837.69;5039084;28;45292;-50
2022/09/07 03:41:21;;;;;;;;;2.75;2.75;;;;;26.32;42.96;100843.00;5045232;28;45695;-50
2022/09/07 03:43:46;;;;;;;;;4.00;2.75;;;;;26.31;43.06;100847.50;5060395;28;45000;-51
2022/09/07 03:46:14;;;;;;;;;2.00;2.00;;;;;26.32;43.15;100848.31;5044453;28;45440;-50
2022/09/07 03:48:40;;;;;;;;;3.00;3.00;;;;;26.31;43.18;100846.63;5038920;28;45509;-50
2022/09/07 03:51:07;;;;;;;;;3.50;2.00;;;;;26.31;42.72;100849.28;5040208;28;45502;-50
2022/09/07 03:53:35;;;;;;;;;3.00;1.75;;;;;26.31;42.98;100843.97;5041973;28;45527;-46
2022/09/07 03:56:06;;;;;;;;;2.00;2.00;;;;;26.30;42.91;100851.13;5041045;28;45734;-50
2022/09/07 03:58:34;;;;;;;;;1.25;1.25;;;;;26.30;43.18;100850.25;5043452;28;45145;-48
2022/09/07 04:01:05;;;;;;;;;2.50;1.75;;;;;26.30;43.05;100852.91;5042251;28;45486;-52
2022/09/07 04:03:30;;;;;;;;;0.25;0.25;;;;;26.30;42.48;100850.25;5037270;28;45280;-48
2022/09/07 04:06:00;;;;;;;;;1.00;1.00;;;;;26.29;43.13;100860.06;5036838;28;47492;-49
2022/09/07 04:08:30;;;;;;;;;1.75;1.75;;;;;26.29;42.74;100859.22;5036815;28;45409;-47
2022/09/07 04:10:57;;;;;;;;;2.75;2.75;;;;;26.29;43.06;100872.50;5035851;28;45198;-48
2022/09/07 04:13:23;;;;;;;;;2.00;2.00;;;;;26.29;42.69;100876.00;5037575;28;45713;-48
2022/09/07 04:15:49;;;;;;;;;2.75;2.00;;;;;26.28;42.67;100876.13;5036172;28;45747;-53
2022/09/07 04:18:14;;;;;;;;;2.00;2.00;;;;;26.28;42.80;100882.28;5038524;28;45570;-50
2022/09/07 04:20:39;;;;;;;;;4.00;2.25;;;;;26.27;42.97;100882.41;5041092;28;45547;-48
2022/09/07 04:23:05;;;;;;;;;3.00;3.00;;;;;26.29;43.16;100883.13;5044925;28;46246;-49
2022/09/07 04:25:30;;;;;;;;;2.00;2.00;;;;;26.28;42.95;100886.75;5038066;28;45545;-55
2022/09/07 04:27:56;;;;;;;;;2.00;2.00;;;;;26.28;42.86;100881.44;5036803;28;45270;-50
2022/09/07 04:30:21;;;;;;;;;1.50;1.50;;;;;26.27;42.80;100883.22;5036168;28;45351;-48
2022/09/07 04:32:47;;;;;;;;;1.75;1.50;;;;;26.27;43.22;100887.72;5035956;28;45952;-51
2022/09/07 04:35:12;;;;;;;;;2.00;1.25;;;;;26.27;43.09;100882.41;5036238;28;45346;-51
2022/09/07 04:37:38;;;;;;;;;1.50;1.50;;;;;26.26;43.06;100881.53;5035198;28;45478;-49
2022/09/07 04:40:04;;;;;;;;;2.00;1.25;;;;;26.27;43.15;100882.41;5032864;28;45471;-50
2022/09/07 04:42:29;;;;;;;;;2.50;2.50;;;;;26.26;42.81;100875.41;5036066;28;45308;-52
2022/09/07 04:44:55;;;;;;;;;1.00;1.00;;;;;26.25;42.72;100882.50;5038131;28;45193;-51
2022/09/07 04:47:21;;;;;;;;;2.00;1.00;;;;;26.26;42.96;100876.22;5043467;28;45165;-48
2022/09/07 04:49:52;;;;;;;;;1.25;1.00;;;;;26.24;42.78;100873.69;5053086;28;45185;-51
2022/09/07 04:52:17;;;;;;;;;1.00;1.00;;;;;26.24;43.22;100875.50;5041856;28;45391;-52
2022/09/07 04:54:47;;;;;;;;;1.25;1.25;;;;;26.24;42.84;100878.16;5000960;28;1121655;-47
2022/09/07 04:57:12;;;;;;;;;1.75;0.25;;;;;26.23;43.12;100877.31;5043517;28;45272;-47
2022/09/07 04:59:37;;;;;;;;;1.50;1.00;;;;;26.23;43.13;100882.63;5047343;28;45545;-48
2022/09/07 05:02:05;;;;;;;;;3.00;1.00;;;;;26.23;43.20;100876.50;5043725;28;45270;-49
2022/09/07 05:04:34;;;;;;;;;1.50;1.00;;;;;26.23;42.80;100881.81;5040455;28;45271;-50
2022/09/07 05:06:59;;;;;;;;;2.75;2.00;;;;;26.23;43.14;100879.97;5040824;28;45612;-46
2022/09/07 05:09:25;;;;;;;;;3.00;1.25;;;;;26.23;42.67;100879.97;5040032;28;46078;-51
2022/09/07 05:11:50;;;;;;;;;2.00;1.50;;;;;26.23;42.40;100882.63;5044686;28;45381;-48
2022/09/07 05:14:15;;;;;;;;;1.00;1.00;;;;;26.23;42.77;100885.28;5046546;28;55757;-49
2022/09/07 05:16:41;;;;;;;;;4.00;1.00;;;;;26.23;42.61;100876.50;5040811;28;45525;-48
2022/09/07 05:19:06;;;;;;;;;2.00;2.00;;;;;26.23;42.80;100881.81;5040535;28;47424;-47
2022/09/07 05:21:33;;;;;;;;;1.00;1.00;;;;;26.22;42.82;100883.59;5039926;28;45409;-48
2022/09/07 05:23:59;;;;;;;;;2.50;1.25;;;;;26.23;42.75;100887.94;5043305;28;45224;-46
2022/09/07 05:26:29;;;;;;;;;1.50;1.50;;;;;26.23;42.46;100892.44;5051064;28;45178;-49
2022/09/07 05:28:54;;;;;;;;;2.00;1.00;;;;;26.22;42.78;100893.41;5050863;28;47266;-48
2022/09/07 05:31:21;;;;;;;;;3.00;1.50;;;;;26.21;42.78;100897.84;5046643;28;45360;-53
2022/09/07 05:33:52;;;;;;;;;0.00;0.00;;;;;26.21;42.49;100897.84;5048679;28;45295;-51
2022/09/07 05:36:17;;;;;;;;;3.00;2.00;;;;;26.22;43.04;100906.69;5042413;28;45320;-45
2022/09/07 05:38:43;;;;;;;;;0.25;0.25;;;;;26.21;42.65;100905.00;5043460;28;45495;-46
2022/09/07 05:41:18;;;;;;;;;1.75;1.75;;;;;26.20;42.45;100912.09;5055047;28;44748;-47
2022/09/07 05:43:44;;;;;;;;;1.00;1.00;;;;;26.21;42.68;100897.00;5057139;28;45373;-50
2022/09/07 05:46:10;;;;;;;;;1.00;1.00;;;;;26.20;42.40;100893.50;5040595;28;45569;-51
2022/09/07 05:48:36;;;;;;;;;1.00;1.00;;;;;26.21;42.93;100889.03;5039627;28;46339;-46
2022/09/07 05:51:02;;;;;;;;;2.50;1.50;;;;;26.21;42.64;100889.03;5040249;28;45404;-47
2022/09/07 05:53:28;;;;;;;;;1.00;1.00;;;;;26.21;43.11;100892.53;5038885;28;45251;-48
2022/09/07 05:55:57;;;;;;;;;3.00;2.00;;;;;26.21;42.86;100889.88;5039976;28;45243;-50
2022/09/07 05:58:23;;;;;;;;;1.75;1.00;;;;;26.21;42.82;100895.19;5040267;28;46369;-46
2022/09/07 06:00:48;;;;;;;;;1.25;1.25;;;;;26.21;43.12;100894.34;5041238;28;45320;-45
2022/09/07 06:03:13;;;;;;;;;2.75;1.00;;;;;26.21;42.52;100903.16;5042994;28;45425;-48
2022/09/07 06:05:38;;;;;;;;;2.00;2.00;;;;;26.21;42.78;100900.50;5043284;28;51799;-49
2022/09/07 06:08:04;;;;;;;;;1.00;1.00;;;;;26.21;42.99;100905.81;5042590;28;52434;-50
2022/09/07 06:10:33;;;;;;;;;1.00;1.00;;;;;26.22;42.42;100912.00;5042238;28;45362;-48
2022/09/07 06:12:59;;;;;;;;;3.00;1.00;;;;;26.20;42.85;100896.16;5039535;28;45195;-50
2022/09/07 06:15:24;;;;;;;;;1.75;1.00;;;;;26.21;42.63;100905.00;5040600;28;45311;-53
2022/09/07 06:17:49;;;;;;;;;2.00;2.00;;;;;26.20;42.53;100904.13;5044131;28;47457;-49
2022/09/07 06:20:15;;;;;;;;;0.25;0.25;;;;;26.20;42.79;100906.78;5050683;28;47319;-48
2022/09/07 06:22:40;;;;;;;;;1.75;1.75;;;;;26.20;42.73;100901.47;5053563;28;45187;-51
2022/09/07 06:25:06;;;;;;;;;2.00;1.50;;;;;26.20;42.80;100901.47;5058190;28;45240;-50
2022/09/07 06:27:31;;;;;;;;;2.00;2.00;;;;;26.20;43.06;100904.13;5057486;28;46658;-47
2022/09/07 06:29:56;;;;;;;;;1.50;1.50;;;;;26.19;42.62;100910.41;5055423;28;44732;-46
2022/09/07 06:32:22;;;;;;;;;2.00;1.25;;;;;26.19;43.02;100899.78;5058884;28;44768;-49
2022/09/07 06:34:47;;;;;;;;;1.00;1.00;;;;;26.20;42.78;100914.75;5055107;28;45603;-50
2022/09/07 06:37:13;;;;;;;;;2.00;1.00;;;;;26.20;42.43;100916.56;5039272;28;47885;-49
2022/09/07 06:39:38;;;;;;;;;3.75;1.00;;;;;26.20;42.42;100914.75;5041911;28;45401;-52
2022/09/07 06:42:03;;;;;;;;;1.25;1.00;;;;;26.21;42.83;100905.00;5041718;28;45248;-50
2022/09/07 06:44:29;;;;;;;;;1.00;1.00;;;;;26.20;42.53;100913.91;5040166;28;45382;-52
2022/09/07 06:46:55;;;;;;;;;1.50;1.50;;;;;26.20;42.60;100912.09;5039986;28;46255;-50
2022/09/07 06:49:22;;;;;;;;;3.00;1.50;;;;;26.21;42.48;100897.84;5039691;28;45445;-51
2022/09/07 06:51:47;;;;;;;;;2.00;2.00;;;;;26.22;42.30;100922.63;5038518;28;45258;-55
2022/09/07 06:54:13;;;;;;;;;3.00;1.00;;;;;26.21;42.55;100916.44;5041325;28;45426;-52
2022/09/07 06:56:38;;;;;;;;;1.00;1.00;;;;;26.21;42.73;100916.44;5042888;28;48963;-48
2022/09/07 06:59:03;;;;;;;;;2.00;1.00;;;;;26.22;42.63;100907.50;5040948;28;62068;-53
2022/09/07 07:01:31;;;;;;;;;1.00;1.00;;;;;26.23;42.62;100906.53;5046317;28;45315;-48
2022/09/07 07:03:56;;;;;;;;;2.50;2.50;;;;;26.23;42.37;100917.19;5050435;28;45201;-50
2022/09/07 07:06:21;;;;;;;;;1.50;1.25;;;;;26.24;42.54;100916.22;5039175;28;45566;-48
2022/09/07 07:08:47;;;;;;;;;1.75;1.75;;;;;26.22;42.59;100902.19;5035413;28;45518;-47
2022/09/07 07:11:14;;;;;;;;;3.00;2.25;;;;;26.24;42.75;100894.09;5038229;28;45528;-47
2022/09/07 07:13:42;;;;;;;;;4.25;2.25;;;;;26.23;42.95;100893.25;5038485;28;45393;-50
2022/09/07 07:16:12;;;;;;;;;3.75;2.25;;;;;26.24;42.95;100891.44;5037804;28;46269;-47
2022/09/07 07:18:38;;;;;;;;;2.50;2.00;;;;;26.23;42.48;100882.63;5038255;28;46564;-46
2022/09/07 07:21:09;;;;;;;;;2.00;1.50;;;;;26.24;42.65;100891.44;5039906;28;45351;-47
2022/09/07 07:23:34;;;;;;;;;2.50;2.00;;;;;26.25;42.46;100890.47;5036896;28;45485;-49
2022/09/07 07:26:02;;;;;;;;;3.25;2.00;;;;;26.26;42.37;100907.28;5038138;28;46325;-51
2022/09/07 07:28:27;;;;;;;;;5.00;3.00;;;;;26.24;42.63;100900.28;5039927;28;45941;-47
2022/09/07 07:30:54;;;;;;;;;1.00;1.00;;;;;26.25;42.44;100895.78;5041299;28;45369;-50
2022/09/07 07:33:20;;;;;;;;;1.00;1.00;;;;;26.27;42.89;100895.69;5058483;28;45322;-50
2022/09/07 07:35:46;;;;;;;;;3.00;3.00;;;;;26.26;42.70;100891.34;5051276;28;46227;-46
2022/09/07 07:38:11;;;;;;;;;3.00;1.50;;;;;26.26;42.76;100894.81;5041052;28;45413;-50
2022/09/07 07:40:36;;;;;;;;;4.75;2.00;;;;;26.26;42.59;100886.03;5043268;28;45372;-53
2022/09/07 07:43:02;;;;;;;;;2.00;1.00;;;;;26.26;42.37;100886.03;5056299;28;45589;-49
2022/09/07 07:45:27;;;;;;;;;2.50;2.00;;;;;26.24;42.72;100889.66;5046442;28;46166;-47
2022/09/07 07:47:52;;;;;;;;;1.75;1.75;;;;;26.24;42.52;100892.31;5039524;28;45205;-47
2022/09/07 07:50:18;;;;;;;;;2.00;2.00;;;;;26.25;43.09;100898.44;5038613;28;45311;-48
2022/09/07 07:52:43;;;;;;;;;2.00;2.00;;;;;26.25;42.55;100890.47;5037322;28;45407;-49
2022/09/07 07:55:09;;;;;;;;;2.00;2.00;;;;;26.24;42.76;100889.66;5051268;28;45993;-47
2022/09/07 07:57:34;;;;;;;;;1.25;1.00;;;;;26.23;42.63;100887.94;5052369;28;44718;-50
2022/09/07 07:59:59;;;;;;;;;7.00;3.00;;;;;26.26;42.58;100880.72;5040850;28;45177;-53
2022/09/07 08:02:25;;;;;;;;;3.00;1.50;;;;;26.25;42.32;100885.16;5038015;28;45317;-50
2022/09/07 08:04:51;;;;;;;;;2.00;2.00;;;;;26.24;42.94;100884.31;5019070;28;45259;-50
2022/09/07 08:07:18;;;;;;;;;2.00;2.00;;;;;26.23;42.57;100877.31;5036069;28;45620;-52
2022/09/07 08:09:45;;;;;;;;;4.50;3.00;;;;;26.23;42.76;100874.66;5038571;28;45462;-50
2022/09/07 08:12:15;;;;;;;;;0.25;0.25;;;;;26.24;42.45;100865.72;5044667;28;45499;-47
2022/09/07 08:14:41;;;;;;;;;1.50;1.50;;;;;26.24;42.47;100875.50;5044455;28;45211;-47
2022/09/07 08:17:08;;;;;;;;;1.00;1.00;;;;;26.23;42.58;100877.31;5040343;28;45185;-46
2022/09/07 08:19:33;;;;;;;;;3.00;2.00;;;;;26.23;42.87;100872.00;5038125;28;45362;-52
2022/09/07 08:21:59;;;;;;;;;3.50;2.00;;;;;26.24;42.54;100875.50;5035375;28;45547;-48
2022/09/07 08:24:24;;;;;;;;;2.00;2.00;;;;;26.24;42.89;100876.34;5047179;28;45335;-50
2022/09/07 08:26:50;;;;;;;;;2.00;2.00;;;;;26.24;42.50;100876.34;5049640;28;45322;-50
2022/09/07 08:29:15;;;;;;;;;2.00;2.00;;;;;26.26;42.95;100878.88;5043275;28;45327;-52
2022/09/07 08:31:40;;;;;;;;;2.00;2.00;;;;;26.26;42.65;100873.56;5042296;28;45474;-48
2022/09/07 08:34:06;;;;;;;;;1.50;1.50;;;;;26.27;42.86;100871.78;5037389;28;47295;-51
